Time;durP1;ratioP1;P1;durP2;ratioP2;P2;SDS_P1;SDS_P2;PMS_P1;PMS_P2;Temp;Humidity;BMP_temperature;BMP_pressure;BME280_temperature;BME280_humidity;BME280_pressure;Samples;Min_cycle;Max_cycle;Signal;HPM_P1;HPM_P2
2022/09/30 00:05:31;;;;;;;24.60;12.60;;;;;;;7.49;96.95;97847.44;216912;1290;25377;-75
2022/09/30 00:17:58;;;;;;;17.00;10.40;;;;;;;7.64;96.87;97832.55;218507;1285;22560;-75
2022/09/30 00:23:53;;;;;;;20.10;11.80;;;;;;;7.65;96.68;97836.73;218635;1284;24238;-75
2022/09/30 00:37:15;;;;;;;;;;;;;;;;;;;;;
2022/09/30 00:44:07;;;;;;;23.60;13.50;;;;;;;7.78;96.79;97866.34;219578;1281;22557;-75
2022/09/30 00:50:12;;;;;;;19.90;12.80;;;;;;;7.81;96.50;97862.55;218940;1281;24322;-76
2022/09/30 00:56:27;;;;;;;22.10;13.20;;;;;;;7.82;96.44;97862.58;219346;1281;25230;-75
2022/09/30 01:02:53;;;;;;;20.50;13.00;;;;;;;7.84;96.50;97864.69;218533;1284;23273;-74
2022/09/30 01:08:58;;;;;;;23.00;13.90;;;;;;;7.85;96.51;97868.67;218244;1284;22599;-75
2022/09/30 01:15:21;;;;;;;23.10;13.50;;;;;;;7.86;96.63;97865.23;218083;1282;22586;-75
2022/09/30 01:22:18;;;;;;;27.60;14.40;;;;;;;7.90;96.45;97866.18;218080;1284;22586;-75
2022/09/30 01:29:15;;;;;;;22.90;14.10;;;;;;;7.94;96.47;97871.66;219119;1281;25944;-75
2022/09/30 01:35:58;;;;;;;22.70;13.70;;;;;;;7.99;96.73;97867.69;218747;1281;24458;-75
2022/09/30 01:42:46;;;;;;;28.10;15.50;;;;;;;8.03;96.87;97880.20;218662;1281;23256;-74
2022/09/30 02:03:40;;;;;;;;;;;;;;;;;;;;;
2022/09/30 02:17:50;;;;;;;;;;;;;;;;;;;;;
2022/09/30 02:45:07;;;;;;;19.90;11.80;;;;;;;8.55;96.79;97893.55;218617;1282;22576;-75
2022/09/30 03:13:01;;;;;;;;;;;;;;;;;;;;;
2022/09/30 03:20:13;;;;;;;17.60;11.20;;;;;;;8.68;96.55;97908.00;218686;1281;22577;-75
2022/09/30 03:33:49;;;;;;;19.60;12.10;;;;;;;8.73;96.35;97909.77;218751;1282;23214;-75
2022/09/30 03:40:25;;;;;;;21.30;12.20;;;;;;;8.78;96.53;97902.73;218573;1284;24316;-75
2022/09/30 04:00:04;;;;;;;25.10;13.50;;;;;;;8.85;96.44;97905.42;219078;1282;22551;-75
2022/09/30 04:05:30;;;;;;;18.40;11.50;;;;;;;8.85;96.66;97912.23;219522;1281;22570;-75
2022/09/30 04:11:33;;;;;;;18.70;11.80;;;;;;;8.88;96.63;97907.92;219027;1281;22573;-75
2022/09/30 04:18:23;;;;;;;21.60;12.40;;;;;;;8.87;96.46;97904.14;218351;1284;23055;-75
2022/09/30 04:24:38;;;;;;;18.10;11.80;;;;;;;8.88;96.69;97905.52;219280;1281;22572;-75
2022/09/30 04:31:32;;;;;;;19.40;12.10;;;;;;;8.87;96.75;97906.06;218828;1282;22538;-77
2022/09/30 04:37:16;;;;;;;15.80;11.30;;;;;;;8.87;96.97;97913.33;218807;1284;24309;-75
2022/09/30 04:42:42;;;;;;;;;;;;;;;;;;;;;
2022/09/30 04:48:00;;;;;;;20.60;11.40;;;;;;;8.89;97.33;97937.39;219384;1281;23850;-76
2022/09/30 04:53:46;;;;;;;20.30;11.60;;;;;;;8.93;97.26;97939.25;218996;1281;25562;-75
2022/09/30 04:58:59;;;;;;;20.70;11.40;;;;;;;8.96;97.47;97933.94;218996;1282;22566;-74
2022/09/30 05:04:35;;;;;;;22.00;12.30;;;;;;;8.98;97.30;97935.06;219108;1281;25251;-75
2022/09/30 05:09:51;;;;;;;18.90;12.30;;;;;;;9.00;97.27;97934.70;219014;1281;22586;-76
2022/09/30 05:16:26;;;;;;;21.20;10.30;;;;;;;9.03;97.30;97938.14;219583;1281;24620;-75
2022/09/30 05:28:40;;;;;;;16.60;10.70;;;;;;;9.09;97.56;97953.83;218802;1282;22725;-75
2022/09/30 05:35:13;;;;;;;;;;;;;;;;;;;;;
2022/09/30 05:40:42;;;;;;;19.20;11.80;;;;;;;9.22;97.78;97964.84;219336;1281;24321;-75
2022/09/30 05:53:18;;;;;;;18.70;11.30;;;;;;;9.38;98.07;97981.13;218710;1282;22712;-75
2022/09/30 05:59:49;;;;;;;15.80;9.60;;;;;;;9.48;98.08;97983.86;219494;1281;22634;-76
2022/09/30 06:05:11;;;;;;;16.90;11.00;;;;;;;9.58;98.00;97982.88;219940;1281;26780;-75
2022/09/30 06:11:48;;;;;;;20.50;12.10;;;;;;;9.69;98.20;97983.04;219420;1279;22582;-75
2022/09/30 06:17:05;;;;;;;20.40;11.90;;;;;;;9.78;97.99;97990.05;219988;1281;22550;-75
2022/09/30 06:22:48;;;;;;;18.40;11.20;;;;;;;9.84;98.03;97999.44;220009;1281;22652;-75
2022/09/30 06:28:22;;;;;;;21.50;13.10;;;;;;;9.89;97.92;98006.13;219783;1281;22579;-75
2022/09/30 06:33:50;;;;;;;22.50;13.70;;;;;;;9.93;97.84;98007.75;219521;1282;22535;-75
2022/09/30 06:40:39;;;;;;;88.40;39.30;;;;;;;9.98;97.80;98012.92;219397;1281;24316;-74
2022/09/30 06:46:42;;;;;;;;;;;;;;;;;;;;;
2022/09/30 06:53:03;;;;;;;22.70;12.70;;;;;;;10.12;98.16;98023.70;219695;1281;25419;-74
2022/09/30 06:58:12;;;;;;;22.40;14.30;;;;;;;10.17;98.14;98023.63;219625;1281;24247;-76
2022/09/30 07:03:28;;;;;;;20.40;12.80;;;;;;;10.24;98.23;98025.41;219327;1281;22555;-75
2022/09/30 07:09:21;;;;;;;21.80;13.00;;;;;;;10.31;98.38;98026.42;218873;1284;22569;-76
2022/09/30 07:14:34;;;;;;;18.20;11.10;;;;;;;10.37;98.29;98022.75;219413;1282;22595;-75
2022/09/30 07:20:20;;;;;;;22.30;13.60;;;;;;;10.46;98.20;98024.31;219382;1284;22536;-76
2022/09/30 07:26:51;;;;;;;18.60;12.30;;;;;;;10.60;98.41;98023.16;219473;1284;22585;-76
2022/09/30 07:32:24;;;;;;;20.30;13.80;;;;;;;10.66;97.90;98032.44;219082;1282;22703;-75
2022/09/30 07:44:21;;;;;;;16.90;10.70;;;;;;;10.91;97.92;98034.17;219779;1281;23117;-75
2022/09/30 07:49:45;;;;;;;19.30;11.60;;;;;;;11.06;97.85;98041.92;219557;1281;22802;-75
2022/09/30 07:55:49;;;;;;;16.00;10.90;;;;;;;11.19;97.83;98044.20;219564;1281;22567;-75
2022/09/30 08:01:41;;;;;;;18.90;12.20;;;;;;;11.36;97.57;98047.80;219356;1281;22513;-77
2022/09/30 08:07:47;;;;;;;18.00;11.80;;;;;;;11.50;97.59;98055.83;218985;1282;22572;-77
2022/09/30 08:14:14;;;;;;;21.60;13.20;;;;;;;11.57;97.30;98058.59;218934;1282;25366;-77
2022/09/30 08:19:43;;;;;;;20.90;13.10;;;;;;;11.62;97.18;98061.72;219427;1282;25391;-77
2022/09/30 08:25:22;;;;;;;21.60;13.60;;;;;;;11.61;97.03;98067.23;219611;1281;24264;-74
2022/09/30 08:30:24;;;;;;;23.00;14.10;;;;;;;11.60;97.08;98076.83;219303;1282;22619;-76
2022/09/30 08:35:59;;;;;;;;;;;;;;;;;;;;;
2022/09/30 08:41:13;;;;;;;25.70;15.40;;;;;;;11.42;96.94;98082.40;219535;1281;22550;-76
2022/09/30 08:47:06;;;;;;;;;;;;;;;;;;;;;
2022/09/30 08:52:39;;;;;;;20.40;13.00;;;;;;;11.28;97.24;98089.95;219355;1281;23023;-76
2022/09/30 08:58:46;;;;;;;22.80;14.30;;;;;;;11.28;97.21;98094.73;219438;1281;22564;-76
2022/09/30 09:04:19;;;;;;;22.20;13.80;;;;;;;11.32;97.59;98093.81;219336;1281;22591;-77
2022/09/30 09:10:04;;;;;;;27.20;16.50;;;;;;;11.32;97.32;98094.36;219251;1282;25360;-77
2022/09/30 09:16:37;;;;;;;24.80;14.90;;;;;;;11.37;97.58;98098.20;219391;1281;23099;-77
2022/09/30 09:22:24;;;;;;;25.10;14.80;;;;;;;11.46;97.91;98094.66;219548;1281;25339;-77
2022/09/30 09:33:51;;;;;;;26.70;17.40;;;;;;;11.58;97.78;98106.32;219571;1281;22790;-78
2022/09/30 09:39:50;;;;;;;26.70;16.70;;;;;;;11.58;97.79;98104.05;219866;1281;22746;-77
2022/09/30 09:45:52;;;;;;;29.90;18.70;;;;;;;11.64;97.82;98106.36;219114;1281;23885;-77
2022/09/30 09:51:39;;;;;;;23.10;14.60;;;;;;;11.73;97.91;98113.62;219750;1281;26388;-77
2022/09/30 09:57:46;;;;;;;24.10;15.10;;;;;;;11.81;97.79;98118.27;219703;1281;25272;-80
2022/09/30 10:03:20;;;;;;;;;;;;;;;;;;;;;
2022/09/30 10:14:45;;;;;;;26.00;16.40;;;;;;;11.92;97.43;98128.21;219523;1281;22665;-77
2022/09/30 10:20:23;;;;;;;27.00;16.90;;;;;;;11.93;97.66;98132.77;219598;1281;25473;-77
2022/09/30 10:25:45;;;;;;;23.60;15.10;;;;;;;11.95;97.53;98135.98;219537;1281;22595;-79
2022/09/30 10:30:56;;;;;;;22.30;13.90;;;;;;;11.95;97.32;98142.02;219704;1281;23336;-78
2022/09/30 10:36:19;;;;;;;22.80;15.00;;;;;;;11.94;97.33;98148.85;219425;1281;22561;-80
2022/09/30 10:41:50;;;;;;;21.30;12.80;;;;;;;11.92;97.67;98150.29;219687;1281;22730;-78
2022/09/30 10:47:06;;;;;;;20.70;13.50;;;;;;;11.94;97.90;98146.36;219597;1281;25330;-77
2022/09/30 10:52:31;;;;;;;21.40;13.00;;;;;;;12.01;98.08;98150.20;219609;1281;22685;-77
2022/09/30 10:57:40;;;;;;;25.80;15.50;;;;;;;12.05;98.00;98154.39;219731;1281;24286;-78
2022/09/30 11:03:19;;;;;;;22.70;13.50;;;;;;;12.08;97.98;98157.41;219230;1281;22683;-78
2022/09/30 11:08:44;;;;;;;17.30;11.10;;;;;;;12.08;97.88;98167.15;219711;1281;24713;-80
2022/09/30 11:14:29;;;;;;;16.10;10.80;;;;;;;11.98;97.76;98167.26;219624;1281;25264;-78
2022/09/30 11:20:11;;;;;;;14.00;8.90;;;;;;;11.94;97.80;98176.61;219159;1281;25274;-79
2022/09/30 11:32:34;;;;;;;10.70;7.40;;;;;;;11.95;98.02;98176.84;218918;1281;22790;-79
2022/09/30 11:38:38;;;;;;;9.70;6.40;;;;;;;11.97;97.87;98180.92;217882;1287;23147;-78
2022/09/30 11:44:06;;;;;;;12.90;8.70;;;;;;;11.96;97.30;98183.95;219483;1281;22686;-78
2022/09/30 11:49:59;;;;;;;13.10;8.40;;;;;;;11.99;97.64;98192.96;219334;1282;22608;-78
2022/09/30 11:55:36;;;;;;;12.60;8.90;;;;;;;12.03;97.72;98196.67;219359;1281;25528;-78
2022/09/30 12:01:33;;;;;;;10.90;8.00;;;;;;;12.08;98.02;98189.80;219464;1281;22590;-77
2022/09/30 12:06:46;;;;;;;10.80;7.20;;;;;;;12.09;97.93;98202.09;219129;1281;24283;-76
2022/09/30 12:11:56;;;;;;;9.90;7.00;;;;;;;12.03;97.78;98205.08;219772;1281;22734;-76
2022/09/30 12:17:04;;;;;;;;;;;;;;;12.03;98.02;98204.13;219556;1281;23794;-76
2022/09/30 12:22:39;;;;;;;9.80;6.60;;;;;;;12.00;97.97;98206.23;219590;1281;23788;-77
2022/09/30 12:27:53;;;;;;;10.10;7.50;;;;;;;11.97;97.96;98213.39;219596;1281;26303;-77
2022/09/30 12:38:48;;;;;;;9.10;6.90;;;;;;;11.95;97.95;98225.25;219733;1281;22600;-76
2022/09/30 12:44:04;;;;;;;12.60;6.80;;;;;;;11.92;97.76;98230.05;219606;1281;22642;-77
2022/09/30 12:49:13;;;;;;;9.00;6.70;;;;;;;11.90;97.85;98231.34;219881;1281;23912;-77
2022/09/30 12:54:48;;;;;;;13.50;7.70;;;;;;;11.89;98.07;98237.80;219133;1281;24331;-76
2022/09/30 12:59:59;;;;;;;8.90;7.00;;;;;;;11.92;98.11;98243.14;219585;1281;22583;-76
2022/09/30 13:05:33;;;;;;;12.80;8.70;;;;;;;11.92;98.00;98250.72;219447;1281;22671;-76
2022/09/30 13:11:25;;;;;;;12.20;9.20;;;;;;;11.83;98.02;98250.45;219850;1281;22666;-76
2022/09/30 13:17:52;;;;;;;15.80;10.30;;;;;;;11.70;98.21;98255.36;219427;1282;22645;-76
2022/09/30 13:23:38;;;;;;;12.20;9.00;;;;;;;11.63;98.35;98255.16;219668;1281;25461;-76
2022/09/30 13:28:44;;;;;;;15.40;9.30;;;;;;;11.61;98.58;98260.52;219436;1281;23091;-76
2022/09/30 13:34:20;;;;;;;22.50;15.60;;;;;;;11.64;98.64;98261.61;216165;1299;543860;-76
2022/09/30 13:40:05;;;;;;;13.10;9.50;;;;;;;11.64;98.64;98263.45;219786;1280;22561;-76
2022/09/30 13:45:20;;;;;;;13.20;9.70;;;;;;;11.64;98.94;98270.39;219942;1280;273328;-75
2022/09/30 13:50:25;;;;;;;14.50;10.10;;;;;;;11.65;98.92;98271.69;220037;1280;22554;-76
2022/09/30 13:55:46;;;;;;;13.50;9.30;;;;;;;11.64;98.65;98265.06;220314;1278;25254;-77
2022/09/30 14:01:46;;;;;;;12.80;9.20;;;;;;;11.64;99.06;98265.27;220306;1279;22754;-76
2022/09/30 14:07:54;;;;;;;11.80;8.00;;;;;;;11.71;98.83;98259.21;219354;1280;23034;-77
2022/09/30 14:14:34;;;;;;;13.00;9.30;;;;;;;11.73;98.86;98258.13;219847;1280;25374;-77
2022/09/30 14:27:04;;;;;;;12.30;8.40;;;;;;;11.70;98.54;98261.39;218800;1286;22576;-76
2022/09/30 14:32:31;;;;;;;11.50;8.30;;;;;;;11.71;98.75;98268.15;219914;1278;22545;-75
2022/09/30 14:38:28;;;;;;;12.80;9.00;;;;;;;11.70;98.62;98268.23;219934;1280;22715;-77
2022/09/30 14:44:13;;;;;;;10.90;7.70;;;;;;;11.66;98.76;98279.02;220180;1278;22597;-77
2022/09/30 14:49:27;;;;;;;11.90;8.00;;;;;;;11.61;98.60;98288.58;219877;1278;23418;-77
2022/09/30 14:54:32;;;;;;;13.20;9.10;;;;;;;11.59;98.63;98299.52;219899;1280;24234;-77
2022/09/30 14:59:39;;;;;;;12.20;8.40;;;;;;;11.61;98.86;98297.60;219990;1278;22750;-76
2022/09/30 15:04:53;;;;;;;14.20;9.60;;;;;;;11.58;98.60;98312.05;219894;1277;22574;-77
2022/09/30 15:10:04;;;;;;;16.10;11.10;;;;;;;11.52;98.97;98330.17;219560;1281;22707;-77
2022/09/30 15:15:39;;;;;;;17.20;9.80;;;;;;;11.42;99.00;98327.62;221697;1267;25365;-77
2022/09/30 15:20:43;;;;;;;16.80;11.50;;;;;;;11.32;99.19;98314.98;221657;1268;22762;-76
2022/09/30 15:25:50;;;;;;;15.70;11.30;;;;;;;11.24;99.21;98321.60;221553;1267;22720;-76
2022/09/30 15:30:57;;;;;;;18.00;12.90;;;;;;;11.15;99.36;98329.84;221391;1269;22531;-76
2022/09/30 15:41:41;;;;;;;18.90;12.30;;;;;;;11.08;99.86;98328.56;221815;1267;22629;-76
2022/09/30 15:47:28;;;;;;;19.00;12.60;;;;;;;11.04;99.82;98332.81;221258;1268;22605;-77
2022/09/30 15:53:02;;;;;;;17.70;12.20;;;;;;;10.99;99.87;98341.93;221189;1267;23837;-76
2022/09/30 15:58:59;;;;;;;19.30;12.50;;;;;;;10.94;99.91;98337.53;221364;1267;24250;-77
2022/09/30 16:04:04;;;;;;;17.40;11.70;;;;;;;10.89;100.00;98339.85;221685;1267;22534;-75
2022/09/30 16:09:19;;;;;;;20.50;12.80;;;;;;;10.85;100.00;98350.45;221740;1267;22657;-76
2022/09/30 16:14:30;;;;;;;19.00;12.10;;;;;;;10.82;100.00;98358.06;221783;1267;23414;-76
2022/09/30 16:19:34;;;;;;;24.90;14.60;;;;;;;10.76;100.00;98359.08;221617;1270;23347;-76
2022/09/30 16:24:42;;;;;;;25.70;15.40;;;;;;;10.69;100.00;98358.80;221427;1267;22613;-76
2022/09/30 16:30:05;;;;;;;;;;;;;;;;;;;;;
2022/09/30 16:35:17;;;;;;;32.20;17.20;;;;;;;10.63;100.00;98363.86;221692;1267;22787;-76
2022/09/30 16:40:53;;;;;;;28.90;15.70;;;;;;;10.60;100.00;98374.52;221241;1270;22638;-76
2022/09/30 16:46:21;;;;;;;24.30;14.70;;;;;;;10.58;100.00;98383.05;221364;1271;23302;-78
2022/09/30 16:51:37;;;;;;;23.70;14.50;;;;;;;10.57;100.00;98377.34;220984;1273;25293;-76
2022/09/30 16:57:13;;;;;;;27.00;15.30;;;;;;;10.53;100.00;98378.56;221620;1271;22532;-76
2022/09/30 17:02:21;;;;;;;42.50;22.50;;;;;;;10.51;100.00;98362.96;221189;1270;23797;-76
2022/09/30 17:07:26;;;;;;;29.90;15.40;;;;;;;10.52;100.00;98369.52;221193;1270;24229;-75
2022/09/30 17:12:31;;;;;;;27.00;15.80;;;;;;;10.48;100.00;98371.21;221361;1270;25297;-76
2022/09/30 17:17:46;;;;;;;33.00;17.40;;;;;;;10.44;100.00;98374.55;221169;1271;22638;-76
2022/09/30 17:22:56;;;;;;;28.60;15.90;;;;;;;10.46;100.00;98385.02;221530;1267;22574;-76
2022/09/30 17:27:59;;;;;;;30.90;15.30;;;;;;;10.46;100.00;98387.64;221835;1267;23031;-76
2022/09/30 17:33:08;;;;;;;28.90;15.40;;;;;;;10.43;100.00;98389.97;221575;1267;24231;-76
2022/09/30 17:38:14;;;;;;;27.60;15.60;;;;;;;10.43;100.00;98398.81;221691;1268;25417;-76
2022/09/30 17:43:25;;;;;;;36.00;16.00;;;;;;;10.41;100.00;98405.76;221672;1267;24556;-75
2022/09/30 17:48:32;;;;;;;31.10;16.20;;;;;;;10.39;100.00;98407.94;221706;1267;25367;-76
2022/09/30 17:53:37;;;;;;;23.20;13.40;;;;;;;10.38;100.00;98413.00;221696;1266;22543;-75
2022/09/30 17:58:41;;;;;;;33.90;16.70;;;;;;;10.36;100.00;98422.24;221587;1267;25513;-76
2022/09/30 18:03:52;;;;;;;38.40;16.70;;;;;;;10.35;100.00;98426.98;221737;1267;24142;-74
2022/09/30 18:09:15;;;;;;;28.00;14.30;;;;;;;10.34;100.00;98435.60;221103;1270;25525;-76
2022/09/30 18:14:19;;;;;;;32.40;16.00;;;;;;;10.30;100.00;98444.33;221112;1273;22491;-74
2022/09/30 18:19:23;;;;;;;36.00;17.60;;;;;;;10.30;100.00;98448.30;220997;1270;22535;-77
2022/09/30 18:29:53;;;;;;;31.10;14.70;;;;;;;10.32;100.00;98467.64;221202;1270;22569;-76
2022/09/30 18:34:56;;;;;;;26.10;14.20;;;;;;;10.33;100.00;98466.73;221848;1268;24412;-76
2022/09/30 18:40:03;;;;;;;40.90;18.90;;;;;;;10.30;100.00;98458.95;221696;1267;22652;-76
2022/09/30 18:45:07;;;;;;;40.70;20.50;;;;;;;10.30;100.00;98456.05;221678;1267;23806;-75
2022/09/30 18:50:13;;;;;;;41.60;18.80;;;;;;;10.32;100.00;98456.34;221660;1267;24253;-75
2022/09/30 18:55:21;;;;;;;35.60;17.60;;;;;;;10.31;100.00;98462.26;222001;1267;22832;-78
2022/09/30 19:00:28;;;;;;;40.40;18.70;;;;;;;10.28;100.00;98456.99;221730;1267;22560;-76
2022/09/30 19:05:49;;;;;;;37.40;17.50;;;;;;;10.30;100.00;98470.03;221740;1267;22700;-76
2022/09/30 19:10:53;;;;;;;40.20;19.40;;;;;;;10.31;100.00;98471.53;221560;1267;24273;-76
2022/09/30 19:16:09;;;;;;;40.60;19.20;;;;;;;10.30;100.00;98465.69;221633;1267;22726;-76
2022/09/30 19:21:16;;;;;;;42.20;19.90;;;;;;;10.31;100.00;98457.61;221736;1268;22604;-76
2022/09/30 19:26:18;;;;;;;42.40;18.10;;;;;;;10.31;100.00;98455.61;221481;1267;23803;-75
2022/09/30 19:31:42;;;;;;;41.80;19.30;;;;;;;10.31;100.00;98458.02;221343;1267;25309;-75
2022/09/30 19:36:58;;;;;;;33.20;16.90;;;;;;;10.32;100.00;98456.61;221733;1267;22575;-75
2022/09/30 19:42:03;;;;;;;36.30;18.40;;;;;;;10.31;100.00;98457.17;221650;1267;22553;-76
2022/09/30 19:47:15;;;;;;;32.20;16.50;;;;;;;10.32;100.00;98447.08;221717;1270;22559;-76
2022/09/30 19:52:40;;;;;;;27.70;14.90;;;;;;;10.33;100.00;98456.29;221672;1268;22559;-75
2022/09/30 19:58:01;;;;;;;37.90;18.00;;;;;;;10.32;100.00;98453.56;221584;1267;24262;-75
2022/09/30 20:03:07;;;;;;;33.40;17.90;;;;;;;10.32;100.00;98461.38;221701;1267;23002;-76
2022/09/30 20:08:12;;;;;;;35.40;18.10;;;;;;;10.32;100.00;98470.15;221446;1267;24953;-76
2022/09/30 20:13:16;;;;;;;34.00;17.10;;;;;;;10.32;100.00;98469.73;221664;1267;23620;-75
2022/09/30 20:18:21;;;;;;;28.00;15.00;;;;;;;10.31;100.00;98464.51;221573;1270;22534;-75
2022/09/30 20:23:24;;;;;;;33.10;17.10;;;;;;;10.32;100.00;98457.52;221660;1268;24408;-75
2022/09/30 20:28:30;;;;;;;29.40;15.90;;;;;;;10.31;100.00;98453.31;221468;1267;22598;-76
2022/09/30 20:33:35;;;;;;;25.80;15.20;;;;;;;10.30;100.00;98454.66;221534;1267;25311;-75
2022/09/30 20:38:39;;;;;;;30.20;15.90;;;;;;;10.31;100.00;98454.42;221344;1267;24239;-76
2022/09/30 20:44:32;;;;;;;32.00;15.80;;;;;;;10.32;100.00;98450.30;221304;1267;24425;-75
2022/09/30 20:49:16;;;;;;;27.30;14.90;;;;;;;10.29;100.00;98457.20;221547;1267;22566;-75
2022/09/30 20:54:34;;;;;;;27.00;14.70;;;;;;;10.30;100.00;98457.23;221335;1267;22552;-76
2022/09/30 21:00:05;;;;;;;32.50;17.00;;;;;;;10.32;100.00;98453.14;221387;1268;25298;-76
2022/09/30 21:05:30;;;;;;;31.60;17.80;;;;;;;10.34;100.00;98451.46;221401;1268;22685;-76
2022/09/30 21:10:36;;;;;;;26.20;14.30;;;;;;;10.34;100.00;98454.67;221021;1270;25375;-76
2022/09/30 21:15:59;;;;;;;31.10;15.90;;;;;;;10.34;100.00;98456.61;220840;1271;25299;-76
2022/09/30 21:21:16;;;;;;;27.20;15.60;;;;;;;10.32;100.00;98455.38;221490;1268;25316;-75
2022/09/30 21:26:21;;;;;;;29.30;15.60;;;;;;;10.30;100.00;98448.08;221657;1267;24144;-76
2022/09/30 21:31:46;;;;;;;32.50;15.80;;;;;;;10.30;100.00;98445.88;221511;1267;24657;-76
2022/09/30 21:37:00;;;;;;;27.30;15.40;;;;;;;10.29;100.00;98460.56;221490;1267;22548;-76
2022/09/30 21:42:06;;;;;;;29.80;15.60;;;;;;;10.30;100.00;98467.35;221675;1267;22699;-74
2022/09/30 21:47:32;;;;;;;20.30;12.40;;;;;;;10.33;100.00;98469.35;221854;1269;24275;-76
2022/09/30 21:52:58;;;;;;;29.30;15.80;;;;;;;10.33;100.00;98468.60;221047;1271;22552;-76
2022/09/30 21:58:01;;;;;;;27.30;15.00;;;;;;;10.31;100.00;98457.54;220916;1271;24237;-75
2022/09/30 22:03:03;;;;;;;30.40;15.60;;;;;;;10.27;100.00;98454.82;220813;1271;22531;-76
2022/09/30 22:08:31;;;;;;;26.30;15.50;;;;;;;10.23;100.00;98454.56;221002;1271;25245;-75
2022/09/30 22:13:35;;;;;;;28.80;15.60;;;;;;;10.21;100.00;98447.27;220760;1272;22559;-76
2022/09/30 22:18:38;;;;;;;26.90;15.60;;;;;;;10.22;100.00;98441.59;220958;1271;24308;-76
2022/09/30 22:23:41;;;;;;;26.80;14.50;;;;;;;10.20;100.00;98445.24;221506;1269;24302;-75
2022/09/30 22:28:47;;;;;;;26.40;15.00;;;;;;;10.20;100.00;98442.94;221719;1268;22538;-75
2022/09/30 22:39:17;;;;;;;26.20;14.40;;;;;;;10.20;100.00;98447.65;221479;1268;24319;-76
2022/09/30 22:44:24;;;;;;;30.60;15.60;;;;;;;10.18;100.00;98439.98;221690;1268;24328;-76
2022/09/30 22:49:31;;;;;;;25.30;14.40;;;;;;;10.19;100.00;98446.50;221393;1267;22576;-75
2022/09/30 22:54:35;;;;;;;28.80;15.60;;;;;;;10.17;100.00;98449.26;222007;1268;23416;-76
2022/09/30 22:59:37;;;;;;;29.30;15.20;;;;;;;10.17;100.00;98453.48;221812;1270;24350;-75
2022/09/30 23:04:44;;;;;;;27.10;15.60;;;;;;;10.16;100.00;98450.23;221690;1268;22578;-75
2022/09/30 23:09:50;;;;;;;30.80;16.40;;;;;;;10.13;100.00;98454.42;221549;1268;23905;-76
2022/09/30 23:15:00;;;;;;;27.00;14.50;;;;;;;10.13;100.00;98460.67;221607;1268;22572;-76
2022/09/30 23:20:07;;;;;;;32.60;17.00;;;;;;;10.13;100.00;98462.45;221480;1268;24267;-76
2022/09/30 23:25:30;;;;;;;32.00;16.40;;;;;;;10.12;100.00;98455.98;221473;1267;26490;-76
2022/09/30 23:30:37;;;;;;;37.90;19.20;;;;;;;10.08;100.00;98458.30;221649;1268;22553;-76
2022/09/30 23:35:47;;;;;;;35.30;17.90;;;;;;;10.06;100.00;98446.17;221559;1268;25249;-76
2022/09/30 23:40:54;;;;;;;34.60;18.30;;;;;;;10.02;100.00;98449.70;221653;1268;22636;-76
2022/09/30 23:45:57;;;;;;;31.80;16.90;;;;;;;9.97;100.00;98454.60;221529;1268;24315;-75
2022/09/30 23:51:04;;;;;;;34.60;18.60;;;;;;;9.90;100.00;98456.27;221554;1268;22585;-76
2022/09/30 23:57:11;;;;;;;42.70;20.40;;;;;;;9.83;100.00;98449.00;221302;1268;25011;-76
